Time;durP1;ratioP1;P1;durP2;ratioP2;P2;SDS_P1;SDS_P2;PMS_P1;PMS_P2;Temp;Humidity;BMP_temperature;BMP_pressure;BME280_temperature;BME280_humidity;BME280_pressure;Samples;Min_cycle;Max_cycle;Signal;HPM_P1;HPM_P2
2022/06/20 00:00:47;;;;;;;10.45;4.82;;;14.10;99.90;;;;;;5095782;28;20027;-66
2022/06/20 00:03:23;;;;;;;9.43;4.93;;;14.10;99.90;;;;;;5095491;28;20028;-66
2022/06/20 00:05:49;;;;;;;15.45;5.32;;;14.10;99.90;;;;;;5095414;28;20111;-66
2022/06/20 00:08:16;;;;;;;9.73;5.20;;;14.10;99.90;;;;;;5095625;28;20056;-66
2022/06/20 00:10:43;;;;;;;13.07;5.65;;;14.00;99.90;;;;;;5095303;28;20020;-66
2022/06/20 00:13:34;;;;;;;11.77;5.05;;;14.00;99.90;;;;;;5095474;28;20490;-66
2022/06/20 00:16:01;;;;;;;9.27;4.97;;;;;;;;;;5095149;28;20435;-66
2022/06/20 00:18:29;;;;;;;11.23;5.60;;;13.90;99.90;;;;;;5095206;28;20020;-66
2022/06/20 00:20:54;;;;;;;11.30;5.28;;;13.70;99.90;;;;;;5095377;28;20028;-66
2022/06/20 00:23:20;;;;;;;11.82;6.47;;;13.60;99.90;;;;;;5095364;28;20367;-66
2022/06/20 00:25:46;;;;;;;13.73;6.03;;;13.70;99.90;;;;;;5095286;28;20466;-66
2022/06/20 00:28:13;;;;;;;11.07;5.57;;;13.70;99.90;;;;;;5095094;28;20024;-66
2022/06/20 00:30:39;;;;;;;11.82;5.80;;;13.70;99.90;;;;;;5095044;28;20047;-66
2022/06/20 00:33:05;;;;;;;13.20;6.00;;;13.80;99.90;;;;;;5095085;28;20493;-66
2022/06/20 00:35:33;;;;;;;13.63;6.32;;;13.80;99.90;;;;;;5094870;28;20099;-66
2022/06/20 00:38:01;;;;;;;13.10;5.90;;;13.90;99.90;;;;;;5093603;28;20024;-66
2022/06/20 00:40:48;;;;;;;11.80;5.85;;;13.90;99.90;;;;;;5094736;28;20020;-66
2022/06/20 00:43:24;;;;;;;10.10;6.03;;;14.00;99.90;;;;;;5094685;28;20025;-66
2022/06/20 00:45:53;;;;;;;12.20;5.75;;;14.00;99.90;;;;;;5094674;28;20020;-66
2022/06/20 00:48:30;;;;;;;12.45;5.97;;;14.10;99.90;;;;;;5094661;28;20466;-66
2022/06/20 00:51:02;;;;;;;10.25;6.03;;;14.10;99.90;;;;;;5094467;28;20051;-66
2022/06/20 00:53:42;;;;;;;8.95;5.85;;;14.10;99.90;;;;;;5094515;28;20027;-65
2022/06/20 00:56:22;;;;;;;13.32;5.90;;;14.10;99.90;;;;;;5094755;28;20470;-66
2022/06/20 00:58:58;;;;;;;13.45;6.68;;;14.10;99.90;;;;;;5094643;28;20031;-66
2022/06/20 01:01:32;;;;;;;16.42;6.70;;;14.10;99.90;;;;;;5094609;28;20032;-66
2022/06/20 01:04:06;;;;;;;10.55;5.50;;;14.10;99.90;;;;;;5094628;28;20058;-66
2022/06/20 01:06:37;;;;;;;12.80;6.20;;;14.20;99.90;;;;;;5094519;28;20035;-66
2022/06/20 01:09:08;;;;;;;10.40;6.03;;;14.10;99.90;;;;;;5094465;28;20536;-66
2022/06/20 01:11:43;;;;;;;13.23;6.13;;;14.10;99.90;;;;;;5092795;28;20521;-66
2022/06/20 01:14:28;;;;;;;10.95;6.30;;;14.10;99.90;;;;;;5094226;28;20027;-66
2022/06/20 01:16:58;;;;;;;16.83;6.75;;;14.00;99.90;;;;;;5093992;28;20019;-66
2022/06/20 01:19:38;;;;;;;11.60;6.22;;;14.10;99.90;;;;;;5094263;28;20031;-66
2022/06/20 01:22:15;;;;;;;11.88;6.72;;;14.10;99.90;;;;;;5092288;28;20027;-66
2022/06/20 01:25:08;;;;;;;15.23;7.22;;;14.10;99.90;;;;;;5094196;28;20028;-66
2022/06/20 01:27:40;;;;;;;13.73;7.15;;;14.10;99.90;;;;;;5093840;28;20020;-65
2022/06/20 01:30:06;;;;;;;12.52;7.22;;;14.10;99.90;;;;;;5093973;28;20465;-66
2022/06/20 01:32:32;;;;;;;13.73;7.20;;;14.20;99.90;;;;;;5093719;28;20027;-65
2022/06/20 01:35:00;;;;;;;14.90;7.82;;;14.20;99.90;;;;;;5094030;28;20028;-65
2022/06/20 01:37:29;;;;;;;11.00;7.30;;;14.10;99.90;;;;;;5093959;28;20488;-65
2022/06/20 01:40:00;;;;;;;14.80;7.03;;;14.20;99.90;;;;;;5093696;28;20049;-65
2022/06/20 01:42:28;;;;;;;13.00;8.20;;;;;;;;;;5093630;28;20045;-66
2022/06/20 01:47:38;;;;;;;12.07;7.43;;;14.10;99.90;;;;;;5111198;27;20380;-66
2022/06/20 01:50:06;;;;;;;13.05;8.38;;;14.20;99.90;;;;;;5111208;28;20081;-65
2022/06/20 01:52:40;;;;;;;19.77;8.35;;;14.20;99.90;;;;;;5111322;28;20026;-65
2022/06/20 01:55:11;;;;;;;12.88;9.18;;;14.10;99.90;;;;;;5111097;28;20386;-66
2022/06/20 01:57:40;;;;;;;13.45;8.63;;;14.00;99.90;;;;;;5111391;28;20545;-66
2022/06/20 02:00:12;;;;;;;14.65;9.27;;;14.10;99.90;;;;;;5110894;28;20534;-65
2022/06/20 02:02:42;;;;;;;20.60;10.00;;;14.10;99.90;;;;;;5111142;28;20469;-65
2022/06/20 02:05:12;;;;;;;18.83;9.23;;;14.00;99.90;;;;;;5111065;28;20453;-66
2022/06/20 02:07:39;;;;;;;17.67;10.40;;;13.90;99.90;;;;;;5111000;28;20020;-65
2022/06/20 02:10:06;;;;;;;18.55;10.38;;;13.90;99.90;;;;;;5111015;28;20023;-66
2022/06/20 02:12:36;;;;;;;17.10;11.23;;;13.80;99.90;;;;;;5110914;28;20027;-65
2022/06/20 02:15:04;;;;;;;14.30;10.23;;;13.80;99.90;;;;;;5110880;28;20051;-65
2022/06/20 02:17:34;;;;;;;17.30;11.50;;;13.70;99.90;;;;;;5110575;28;20031;-65
2022/06/20 02:20:05;;;;;;;19.40;12.27;;;13.70;99.90;;;;;;5110520;28;20039;-66
2022/06/20 02:22:33;;;;;;;23.25;12.98;;;13.70;99.90;;;;;;5110743;28;20487;-65
2022/06/20 02:25:05;;;;;;;20.77;12.60;;;13.80;99.90;;;;;;5110717;28;20496;-65
2022/06/20 02:27:36;;;;;;;25.98;12.48;;;13.40;99.90;;;;;;5110551;28;20073;-66
2022/06/20 02:30:04;;;;;;;22.45;12.57;;;13.70;99.90;;;;;;5110312;28;20028;-65
2022/06/20 02:32:35;;;;;;;19.58;11.82;;;13.60;99.90;;;;;;5110283;28;20454;-65
2022/06/20 02:35:03;;;;;;;20.67;12.57;;;13.70;99.90;;;;;;5110471;28;20539;-65
2022/06/20 02:37:29;;;;;;;22.95;11.93;;;13.60;99.90;;;;;;5110201;28;20027;-66
2022/06/20 02:40:02;;;;;;;16.85;11.13;;;13.60;99.90;;;;;;5110425;28;20032;-65
2022/06/20 02:42:33;;;;;;;;;;;13.70;99.90;;;;;;5110509;28;20110;-65
2022/06/20 02:45:03;;;;;;;15.35;10.18;;;13.60;99.90;;;;;;5110306;28;19904;-66
2022/06/20 02:47:30;;;;;;;19.38;11.57;;;13.60;99.90;;;;;;5109774;28;20559;-65
2022/06/20 02:49:58;;;;;;;17.00;10.95;;;13.60;99.90;;;;;;5109925;28;20031;-66
2022/06/20 02:52:31;;;;;;;14.48;11.32;;;13.60;99.90;;;;;;5110141;28;20032;-65
2022/06/20 02:54:57;;;;;;;16.53;11.47;;;13.60;99.90;;;;;;5110172;28;20023;-66
2022/06/20 02:57:35;;;;;;;17.00;11.02;;;13.60;99.90;;;;;;5104386;28;20263;-65
2022/06/20 03:00:03;;;;;;;23.10;12.40;;;13.60;99.90;;;;;;5096489;28;20114;-65
2022/06/20 03:02:32;;;;;;;18.98;11.88;;;13.60;99.90;;;;;;5096123;28;20111;-65
2022/06/20 03:04:58;;;;;;;14.07;10.43;;;13.60;99.90;;;;;;5096351;28;20024;-66
2022/06/20 03:07:28;;;;;;;18.27;11.60;;;13.50;99.90;;;;;;5096212;28;20493;-65
2022/06/20 03:10:00;;;;;;;19.63;11.88;;;13.50;99.90;;;;;;5096016;28;20027;-65
2022/06/20 03:12:25;;;;;;;17.75;12.52;;;13.40;99.90;;;;;;5094784;28;20471;-66
2022/06/20 03:14:55;;;;;;;17.40;11.57;;;13.40;99.90;;;;;;5096152;28;20028;-66
2022/06/20 03:17:23;;;;;;;19.35;12.00;;;13.50;99.90;;;;;;5095912;28;20031;-66
2022/06/20 03:19:54;;;;;;;15.85;11.88;;;13.50;99.90;;;;;;5096055;28;20482;-66
2022/06/20 03:22:23;;;;;;;16.13;12.00;;;13.20;99.90;;;;;;5095839;28;20436;-66
2022/06/20 03:24:51;;;;;;;23.40;13.05;;;13.30;99.90;;;;;;5094811;28;20478;-66
2022/06/20 03:27:24;;;;;;;15.73;12.43;;;13.20;99.90;;;;;;5095689;28;20492;-66
2022/06/20 03:29:54;;;;;;;21.05;12.73;;;13.20;99.90;;;;;;5095901;28;20477;-66
2022/06/20 03:32:23;;;;;;;18.33;13.07;;;13.10;99.90;;;;;;5095804;28;20016;-66
2022/06/20 03:34:49;;;;;;;24.02;13.75;;;13.10;99.90;;;;;;5095766;28;20390;-66
2022/06/20 03:37:14;;;;;;;22.95;13.38;;;13.10;99.90;;;;;;5095740;28;20028;-66
2022/06/20 03:39:40;;;;;;;19.60;13.05;;;13.10;99.90;;;;;;5095542;28;20382;-66
2022/06/20 03:42:06;;;;;;;17.35;12.18;;;13.00;99.90;;;;;;5095622;28;20107;-66
2022/06/20 03:44:37;;;;;;;30.90;13.98;;;13.00;99.90;;;;;;5095565;28;20058;-66
2022/06/20 03:47:17;;;;;;;18.90;11.93;;;13.00;99.90;;;;;;5095044;28;20048;-66
2022/06/20 03:49:51;;;;;;;23.13;12.35;;;12.90;99.90;;;;;;5095497;28;20027;-66
2022/06/20 03:52:22;;;;;;;21.45;11.15;;;12.90;99.90;;;;;;5095192;28;20012;-66
2022/06/20 03:55:02;;;;;;;19.17;11.90;;;12.90;99.90;;;;;;5095104;28;20024;-66
2022/06/20 03:57:33;;;;;;;18.70;11.35;;;12.90;99.90;;;;;;5095039;28;20118;-66
2022/06/20 04:00:08;;;;;;;25.92;12.52;;;12.90;99.90;;;;;;5095292;28;20031;-66
2022/06/20 04:02:41;;;;;;;17.63;10.50;;;12.90;99.90;;;;;;5094866;28;20162;-66
2022/06/20 04:05:10;;;;;;;;;;;12.90;99.90;;;;;;5095377;28;20024;-66
2022/06/20 04:07:47;;;;;;;16.17;9.90;;;12.90;99.90;;;;;;5094809;28;19908;-66
2022/06/20 04:13:35;;;;;;;15.50;8.95;;;12.90;99.90;;;;;;5094616;28;20050;-66
2022/06/20 04:16:07;;;;;;;18.55;10.18;;;13.00;99.90;;;;;;5094644;28;20031;-66
2022/06/20 04:18:50;;;;;;;16.75;9.55;;;13.10;99.90;;;;;;5094630;28;20024;-66
2022/06/20 04:21:39;;;;;;;17.98;9.77;;;13.10;99.90;;;;;;5094779;28;20032;-66
2022/06/20 04:24:30;;;;;;;19.63;9.63;;;13.30;99.90;;;;;;5094599;28;20036;-66
2022/06/20 04:27:10;;;;;;;18.85;9.48;;;13.30;99.90;;;;;;5094371;28;20470;-66
2022/06/20 04:29:44;;;;;;;19.40;10.45;;;13.30;99.90;;;;;;5094716;28;20094;-66
2022/06/20 04:32:33;;;;;;;15.77;9.80;;;13.40;99.90;;;;;;5093547;28;20497;-66
2022/06/20 04:35:26;;;;;;;15.75;10.05;;;13.50;99.90;;;;;;5093136;28;20024;-66
2022/06/20 04:37:59;;;;;;;19.73;9.85;;;13.50;99.90;;;;;;5094216;28;20483;-66
2022/06/20 04:40:47;;;;;;;19.63;9.65;;;13.40;99.90;;;;;;5094301;28;20031;-66
2022/06/20 04:43:22;;;;;;;24.67;10.15;;;13.40;99.90;;;;;;5094131;28;20437;-66
2022/06/20 04:46:27;;;;;;;14.18;9.63;;;13.40;99.90;;;;;;5094061;28;20047;-66
2022/06/20 04:48:53;;;;;;;21.92;9.55;;;13.40;99.90;;;;;;5093918;28;20051;-66
2022/06/20 04:51:30;;;;;;;15.52;9.75;;;13.40;99.90;;;;;;5094098;28;20059;-66
2022/06/20 04:53:56;;;;;;;15.93;8.98;;;13.40;99.90;;;;;;5093909;28;20029;-66
2022/06/20 04:56:28;;;;;;;15.63;8.68;;;13.40;99.90;;;;;;5094177;28;20028;-66
2022/06/20 04:59:00;;;;;;;16.20;8.50;;;13.40;99.90;;;;;;5094175;28;20494;-66
2022/06/20 05:01:29;;;;;;;16.08;8.82;;;13.40;99.90;;;;;;5094111;28;20483;-66
2022/06/20 05:04:01;;;;;;;16.92;8.82;;;13.40;99.90;;;;;;5094076;28;20024;-66
2022/06/20 05:06:30;;;;;;;10.37;7.93;;;13.40;99.90;;;;;;5093748;28;20051;-66
2022/06/20 05:09:04;;;;;;;17.63;8.55;;;13.50;99.90;;;;;;5093723;28;20039;-66
2022/06/20 05:11:36;;;;;;;15.88;8.07;;;13.50;99.90;;;;;;5093966;28;20028;-66
2022/06/20 05:14:11;;;;;;;16.83;9.23;;;13.50;99.90;;;;;;5092722;28;20020;-66
2022/06/20 05:16:44;;;;;;;16.77;9.73;;;13.50;99.90;;;;;;5093871;28;20032;-66
2022/06/20 05:19:32;;;;;;;13.27;9.32;;;13.60;99.90;;;;;;5093768;28;20107;-66
2022/06/20 05:22:02;;;;;;;25.33;9.77;;;13.50;99.90;;;;;;5092067;28;20040;-66
2022/06/20 05:24:33;;;;;;;20.45;10.52;;;13.50;99.90;;;;;;5093748;28;20098;-66
2022/06/20 05:27:06;;;;;;;19.33;10.75;;;13.50;99.90;;;;;;5093380;28;20023;-66
2022/06/20 05:29:35;;;;;;;24.45;10.80;;;13.40;99.90;;;;;;5093702;28;20030;-66
2022/06/20 05:32:05;;;;;;;20.50;11.15;;;13.50;99.90;;;;;;5093743;28;20374;-66
2022/06/20 05:34:45;;;;;;;23.40;12.90;;;13.30;99.90;;;;;;5093430;28;20073;-66
2022/06/20 05:37:20;;;;;;;22.50;11.75;;;13.40;99.90;;;;;;5093268;28;20046;-66
2022/06/20 05:39:55;;;;;;;18.88;11.43;;;13.40;99.90;;;;;;5093370;28;20063;-66
2022/06/20 05:42:21;;;;;;;21.20;11.90;;;13.40;99.90;;;;;;5093185;28;20046;-66
2022/06/20 05:44:47;;;;;;;21.83;11.43;;;13.40;99.90;;;;;;5093500;28;20024;-66
2022/06/20 05:47:35;;;;;;;19.27;11.38;;;13.40;99.90;;;;;;5093547;28;20070;-66
2022/06/20 05:50:11;;;;;;;21.85;10.85;;;13.40;99.90;;;;;;5093088;28;20449;-66
2022/06/20 05:52:40;;;;;;;16.48;10.68;;;13.40;99.90;;;;;;5093170;28;20059;-66
2022/06/20 05:55:15;;;;;;;22.17;10.75;;;13.50;99.90;;;;;;5093162;28;20016;-66
2022/06/20 05:57:45;;;;;;;22.65;12.43;;;13.50;99.90;;;;;;5093302;28;20032;-66
2022/06/20 06:00:17;;;;;;;23.25;12.20;;;13.60;99.90;;;;;;5093351;28;20529;-66
2022/06/20 06:02:53;;;;;;;25.25;12.02;;;13.70;99.90;;;;;;5093173;28;20028;-66
2022/06/20 06:05:28;;;;;;;19.33;11.27;;;13.70;99.90;;;;;;5090940;28;20051;-66
2022/06/20 06:08:04;;;;;;;16.95;10.65;;;13.70;99.90;;;;;;5076982;28;20020;-66
2022/06/20 06:10:53;;;;;;;18.75;10.40;;;13.80;99.90;;;;;;5081166;28;20429;-66
2022/06/20 06:13:47;;;;;;;19.73;10.88;;;13.80;99.90;;;;;;5088256;28;20021;-66
2022/06/20 06:16:47;;;;;;;;;;;13.90;99.90;;;;;;5093362;28;20032;-66
2022/06/20 06:19:27;;;;;;;14.50;9.82;;;13.90;99.90;;;;;;5092752;28;19904;-66
2022/06/20 06:21:55;;;;;;;24.60;11.05;;;14.00;99.90;;;;;;5092791;28;20070;-64
2022/06/20 06:24:24;;;;;;;18.88;9.77;;;14.10;99.90;;;;;;5091673;28;20028;-64
2022/06/20 06:26:55;;;;;;;17.17;10.20;;;14.10;99.90;;;;;;5092787;28;20024;-64
2022/06/20 06:29:30;;;;;;;18.38;9.73;;;14.20;99.90;;;;;;5092820;28;20016;-64
2022/06/20 06:32:04;;;;;;;16.05;9.02;;;14.30;99.90;;;;;;5093047;28;20060;-64
2022/06/20 06:34:44;;;;;;;18.38;10.15;;;14.30;99.90;;;;;;5096666;28;20024;-64
2022/06/20 06:37:16;;;;;;;15.32;9.80;;;14.40;99.90;;;;;;5094002;28;20056;-65
2022/06/20 06:40:06;;;;;;;21.30;9.80;;;14.70;99.90;;;;;;5095872;28;20106;-66
2022/06/20 06:42:33;;;;;;;17.58;8.73;;;15.00;99.90;;;;;;5096088;28;20032;-65
2022/06/20 06:44:59;;;;;;;16.10;8.73;;;15.30;99.90;;;;;;5094456;28;20035;-65
2022/06/20 06:47:39;;;;;;;16.75;8.68;;;15.30;99.90;;;;;;5094896;28;20155;-65
2022/06/20 06:50:20;;;;;;;11.35;7.53;;;15.60;99.90;;;;;;5094098;28;20125;-65
2022/06/20 06:52:53;;;;;;;15.88;7.85;;;15.60;99.90;;;;;;5093372;28;20025;-65
2022/06/20 06:58:09;;;;;;;16.20;6.95;;;15.60;99.90;;;;;;5054605;28;20967;-66
2022/06/20 07:00:42;;;;;;;17.10;6.88;;;16.00;99.90;;;;;;5034067;28;20056;-65
2022/06/20 07:03:12;;;;;;;;;;;16.30;99.90;;;;;;5038196;28;20381;-64
2022/06/20 07:05:42;;;;;;;12.82;5.95;;;16.30;99.90;;;;;;5036287;28;19967;-64
2022/06/20 07:08:22;;;;;;;15.48;6.68;;;16.10;99.90;;;;;;5040016;28;20030;-64
2022/06/20 07:11:01;;;;;;;12.30;6.47;;;15.80;99.90;;;;;;5052710;28;20095;-64
2022/06/20 07:13:53;;;;;;;17.10;6.45;;;15.70;99.90;;;;;;5069622;28;20041;-65
2022/06/20 07:16:40;;;;;;;12.82;5.95;;;15.70;99.90;;;;;;5043064;28;20447;-64
2022/06/20 07:19:08;;;;;;;13.48;5.90;;;15.60;99.90;;;;;;5056000;28;20471;-64
2022/06/20 07:21:37;;;;;;;13.30;5.50;;;15.70;99.90;;;;;;5057971;28;20487;-64
2022/06/20 07:24:11;;;;;;;10.35;4.35;;;16.00;99.90;;;;;;5054064;28;20076;-64
2022/06/20 07:26:46;;;;;;;14.32;4.50;;;16.40;99.90;;;;;;5041225;28;20033;-64
2022/06/20 07:29:19;;;;;;;15.95;4.63;;;16.80;99.90;;;;;;5046976;28;20147;-64
2022/06/20 07:31:50;;;;;;;10.88;4.00;;;17.00;99.90;;;;;;5054460;28;20494;-65
2022/06/20 07:34:28;;;;;;;11.93;4.22;;;16.70;99.90;;;;;;5056315;28;20097;-65
2022/06/20 07:36:59;;;;;;;8.60;3.72;;;16.40;99.90;;;;;;5056056;28;20068;-65
2022/06/20 07:39:32;;;;;;;14.57;4.40;;;16.30;99.90;;;;;;5049743;28;20422;-65
2022/06/20 07:42:07;;;;;;;13.18;3.78;;;16.30;99.90;;;;;;5056130;28;20047;-65
2022/06/20 07:44:38;;;;;;;16.50;3.90;;;16.30;99.90;;;;;;5069494;28;20119;-65
2022/06/20 07:47:15;;;;;;;9.85;3.55;;;16.40;99.90;;;;;;5058423;28;22173;-64
2022/06/20 07:49:49;;;;;;;9.65;3.08;;;17.70;99.90;;;;;;5037285;28;20415;-65
2022/06/20 07:52:38;;;;;;;10.68;2.95;;;19.30;99.90;;;;;;5059726;28;20033;-65
2022/06/20 07:55:10;;;;;;;8.40;2.47;;;19.40;99.90;;;;;;5049152;28;20036;-65
2022/06/20 07:57:42;;;;;;;8.48;2.78;;;19.80;99.90;;;;;;5050197;28;20492;-65
2022/06/20 08:00:15;;;;;;;9.20;2.78;;;19.70;99.90;;;;;;5048821;28;20112;-65
2022/06/20 08:02:48;;;;;;;9.52;2.35;;;19.80;99.90;;;;;;5056222;28;20032;-65
2022/06/20 08:05:16;;;;;;;;;;;20.30;99.90;;;;;;5045378;28;20098;-65
2022/06/20 08:07:48;;;;;;;6.60;2.63;;;20.30;99.90;;;;;;5050306;28;20314;-65
2022/06/20 08:10:31;;;;;;;8.65;2.83;;;19.60;99.90;;;;;;5041997;28;20041;-65
2022/06/20 08:13:20;;;;;;;10.30;2.72;;;19.60;99.90;;;;;;5035993;28;20099;-65
2022/06/20 08:15:58;;;;;;;10.00;2.72;;;18.50;99.90;;;;;;5035519;28;20376;-65
2022/06/20 08:18:25;;;;;;;8.40;3.38;;;18.30;99.90;;;;;;5035275;28;20021;-65
2022/06/20 08:21:03;;;;;;;7.03;3.13;;;18.00;99.90;;;;;;5042743;28;20025;-65
2022/06/20 08:23:39;;;;;;;9.48;3.70;;;17.90;99.90;;;;;;5034503;28;20029;-65
2022/06/20 08:26:11;;;;;;;9.13;3.35;;;18.40;99.90;;;;;;5054888;28;20029;-65
2022/06/20 08:28:54;;;;;;;9.32;3.65;;;18.40;99.90;;;;;;5037596;28;20029;-66
2022/06/20 08:31:30;;;;;;;12.00;3.80;;;18.70;99.90;;;;;;5029978;28;20116;-67
2022/06/20 08:34:10;;;;;;;10.57;3.83;;;18.60;99.90;;;;;;5030449;28;20025;-66
2022/06/20 08:36:46;;;;;;;9.02;3.42;;;18.30;99.90;;;;;;5030883;28;20408;-66
2022/06/20 08:39:21;;;;;;;9.57;2.88;;;18.10;99.90;;;;;;5027793;28;20064;-66
2022/06/20 08:42:10;;;;;;;8.32;2.97;;;19.70;99.90;;;;;;5054425;28;20071;-67
2022/06/20 08:45:04;;;;;;;10.90;3.05;;;21.40;99.90;;;;;;5041059;28;20095;-66
2022/06/20 08:48:08;;;;;;;11.20;2.95;;;22.90;99.90;;;;;;5034144;28;20633;-66
2022/06/20 08:51:04;;;;;;;7.00;2.92;;;22.60;99.90;;;;;;5023302;28;20105;-67
2022/06/20 08:54:09;;;;;;;8.13;2.92;;;21.70;99.90;;;;;;5033357;28;20480;-66
2022/06/20 08:57:05;;;;;;;11.48;3.53;;;20.30;99.90;;;;;;5023562;28;20038;-65
2022/06/20 09:00:05;;;;;;;7.68;3.78;;;19.10;99.90;;;;;;5028739;28;20021;-66
2022/06/20 09:03:13;;;;;;;8.70;3.28;;;18.70;99.90;;;;;;5033950;28;20022;-65
2022/06/20 09:05:55;;;;;;;12.88;3.70;;;18.30;99.90;;;;;;5021183;28;20171;-65
2022/06/20 09:11:50;;;;;;;6.20;2.70;;;18.40;99.90;;;;;;5110024;27;20457;-66
2022/06/20 09:14:36;;;;;;;7.47;3.00;;;19.00;99.90;;;;;;5106628;28;20496;-65
2022/06/20 09:17:17;;;;;;;9.82;2.85;;;20.80;99.90;;;;;;5090953;28;20055;-65
2022/06/20 09:19:58;;;;;;;7.47;2.60;;;22.00;99.90;;;;;;5106556;28;20046;-65
2022/06/20 09:22:53;;;;;;;9.23;3.20;;;22.80;99.90;;;;;;5109803;28;20528;-65
2022/06/20 09:25:57;;;;;;;9.13;3.05;;;23.90;99.90;;;;;;5100184;28;20551;-65
2022/06/20 09:29:02;;;;;;;8.05;2.65;;;24.00;99.90;;;;;;5104161;28;20031;-65
2022/06/20 09:31:48;;;;;;;7.88;2.25;;;22.20;99.90;;;;;;5094936;28;20485;-65
2022/06/20 09:34:53;;;;;;;7.72;2.90;;;21.70;99.90;;;;;;5106699;28;20024;-65
2022/06/20 09:37:37;;;;;;;10.95;2.63;;;20.90;99.90;;;;;;5108326;28;20027;-65
2022/06/20 09:40:26;;;;;;;6.63;2.25;;;20.30;99.90;;;;;;5110085;28;20066;-65
2022/06/20 09:43:22;;;;;;;6.45;2.10;;;19.70;99.90;;;;;;5109240;28;20031;-65
2022/06/20 09:49:03;;;;;;;4.65;1.88;;;19.20;99.90;;;;;;5090604;28;20330;-66
2022/06/20 09:51:47;;;;;;;3.55;1.70;;;19.20;99.90;;;;;;5089621;28;20552;-66
2022/06/20 09:54:52;;;;;;;4.03;1.75;;;19.10;99.90;;;;;;5089559;28;20128;-66
2022/06/20 09:57:45;;;;;;;4.93;1.65;;;20.30;99.90;;;;;;5090153;28;20020;-66
2022/06/20 10:00:18;;;;;;;10.30;1.77;;;22.40;99.20;;;;;;5089036;28;20094;-66
2022/06/20 10:03:10;;;;;;;4.68;1.52;;;23.90;93.10;;;;;;5088836;28;20513;-66
2022/06/20 10:06:01;;;;;;;5.32;1.60;;;23.90;91.30;;;;;;5089009;28;20115;-67
2022/06/20 10:08:52;;;;;;;3.47;1.35;;;24.90;87.70;;;;;;5090113;28;20040;-66
2022/06/20 10:11:57;;;;;;;4.82;1.75;;;24.90;84.60;;;;;;5088583;28;20120;-66
2022/06/20 10:14:47;;;;;;;4.38;1.52;;;24.70;87.40;;;;;;5088926;28;20039;-66
2022/06/20 10:20:23;;;;;;;3.88;1.70;;;22.50;90.60;;;;;;5069504;28;20377;-66
2022/06/20 10:23:16;;;;;;;4.38;1.88;;;21.30;92.90;;;;;;5069073;28;20040;-67
2022/06/20 10:26:10;;;;;;;4.25;1.70;;;20.90;95.10;;;;;;5065812;28;20020;-66
2022/06/20 10:29:10;;;;;;;2.85;1.67;;;21.50;93.50;;;;;;5057159;28;20029;-66
2022/06/20 10:31:43;;;;;;;3.63;1.67;;;22.50;91.10;;;;;;5058776;28;20025;-67
2022/06/20 10:34:21;;;;;;;2.53;1.50;;;23.90;88.00;;;;;;5058556;28;20447;-66
2022/06/20 10:37:21;;;;;;;4.15;1.50;;;24.10;87.00;;;;;;5064749;28;20033;-66
2022/06/20 10:40:14;;;;;;;3.75;1.67;;;23.70;82.90;;;;;;5065711;28;20086;-66
2022/06/20 10:43:11;;;;;;;4.90;1.98;;;22.60;87.00;;;;;;5068846;28;20029;-66
2022/06/20 10:45:59;;;;;;;3.75;1.77;;;21.30;91.30;;;;;;5049854;28;20033;-66
2022/06/20 10:48:52;;;;;;;5.68;2.00;;;21.10;91.90;;;;;;5058596;28;20475;-66
2022/06/20 10:51:38;;;;;;;;;;;21.90;92.30;;;;;;5056118;28;20033;-66
2022/06/20 10:54:29;;;;;;;3.80;1.85;;;22.30;90.20;;;;;;5060809;28;19909;-66
2022/06/20 10:57:32;;;;;;;7.28;1.90;;;22.20;90.40;;;;;;5066225;28;20028;-66
2022/06/20 11:03:15;;;;;;;6.72;1.98;;;22.00;91.50;;;;;;5110838;27;20392;-66
2022/06/20 11:05:54;;;;;;;5.72;2.05;;;21.20;92.30;;;;;;5098139;28;20442;-66
2022/06/20 11:12:04;;;;;;;5.68;2.20;;;22.40;87.30;;;;;;5109888;27;20446;-66
2022/06/20 11:14:56;;;;;;;4.28;2.03;;;21.80;85.30;;;;;;5079378;28;20434;-66
2022/06/20 11:17:35;;;;;;;6.35;2.13;;;21.20;90.80;;;;;;5085628;28;20090;-66
2022/06/20 11:20:27;;;;;;;5.60;2.58;;;21.60;91.20;;;;;;5089298;28;20036;-66
2022/06/20 11:23:26;;;;;;;7.82;2.28;;;22.10;90.80;;;;;;5080583;28;20029;-66
2022/06/20 11:26:14;;;;;;;5.30;2.10;;;21.60;90.10;;;;;;5093761;28;20051;-66
2022/06/20 11:29:09;;;;;;;4.63;2.38;;;20.60;92.40;;;;;;5095067;28;20115;-66
2022/06/20 11:32:00;;;;;;;6.10;2.72;;;20.90;93.60;;;;;;5109884;28;20473;-66
2022/06/20 11:34:53;;;;;;;7.47;2.38;;;22.00;92.00;;;;;;5088634;28;20085;-66
2022/06/20 11:40:43;;;;;;;8.40;2.22;;;22.40;88.80;;;;;;5070325;28;20452;-65
2022/06/20 11:43:39;;;;;;;6.15;2.42;;;22.70;86.20;;;;;;5059825;28;20134;-66
2022/06/20 11:46:44;;;;;;;4.90;2.42;;;22.00;88.60;;;;;;5059872;28;20032;-65
2022/06/20 11:49:39;;;;;;;3.95;2.30;;;21.40;87.10;;;;;;5043815;28;20032;-65
2022/06/20 11:52:22;;;;;;;6.43;2.35;;;21.40;90.00;;;;;;5034289;28;20468;-65
2022/06/20 11:57:49;;;;;;;4.35;2.45;;;22.20;89.60;;;;;;5108277;27;20367;-67
2022/06/20 12:00:20;;;;;;;4.68;2.55;;;21.60;88.50;;;;;;5086163;28;20474;-64
2022/06/20 12:03:12;;;;;;;4.95;2.45;;;21.50;90.00;;;;;;5088491;28;20036;-64
2022/06/20 12:06:17;;;;;;;8.50;2.75;;;21.40;88.20;;;;;;5090056;28;20028;-65
2022/06/20 12:08:55;;;;;;;7.18;3.35;;;21.30;90.20;;;;;;5108541;28;20486;-64
2022/06/20 12:14:31;;;;;;;4.93;2.65;;;21.90;88.70;;;;;;5069894;28;20398;-71
2022/06/20 12:17:20;;;;;;;6.35;2.70;;;21.90;84.30;;;;;;5056032;28;20188;-71
2022/06/20 12:23:31;;;;;;;6.57;2.47;;;22.40;84.00;;;;;;5051424;28;20064;-71
2022/06/20 12:25:51;;;;;;;7.15;2.83;;;22.90;88.70;;;;;;5044260;28;20091;-71
2022/06/20 12:28:22;;;;;;;5.33;2.70;;;22.90;83.50;;;;;;5049086;28;20029;-72
2022/06/20 12:31:01;;;;;;;7.93;2.70;;;22.80;82.40;;;;;;5055207;28;20483;-72
2022/06/20 12:33:29;;;;;;;8.15;2.88;;;22.70;83.70;;;;;;5047462;28;20372;-71
2022/06/20 12:36:01;;;;;;;5.15;2.35;;;22.80;84.60;;;;;;5066537;28;20475;-72
2022/06/20 12:41:11;;;;;;;5.25;2.60;;;22.50;83.10;;;;;;5087741;28;20413;-65
2022/06/20 12:44:12;;;;;;;5.30;2.50;;;22.70;85.90;;;;;;5069778;28;20055;-65
2022/06/20 12:47:17;;;;;;;6.00;2.72;;;22.90;83.70;;;;;;5070386;28;20503;-65
2022/06/20 12:49:59;;;;;;;10.98;3.25;;;22.80;87.80;;;;;;5071803;28;20028;-65
2022/06/20 12:53:03;;;;;;;8.93;2.80;;;23.20;86.60;;;;;;5072407;28;20355;-65
2022/06/20 12:55:48;;;;;;;5.70;2.92;;;23.00;83.30;;;;;;5049970;28;20102;-65
2022/06/20 12:58:38;;;;;;;6.50;3.05;;;23.00;83.70;;;;;;5054842;28;20028;-66
2022/06/20 13:01:16;;;;;;;7.07;3.15;;;23.60;82.50;;;;;;5070314;28;20027;-66
2022/06/20 13:09:55;;;;;;;8.45;3.03;;;23.50;82.90;;;;;;5110654;27;20397;-65
2022/06/20 13:12:37;;;;;;;8.43;3.47;;;22.10;84.00;;;;;;5111152;28;20426;-65
2022/06/20 13:15:42;;;;;;;7.80;2.63;;;21.90;86.70;;;;;;5110668;28;20036;-65
2022/06/20 13:18:42;;;;;;;8.35;3.20;;;21.70;87.80;;;;;;5093030;28;20023;-65
2022/06/20 13:21:16;;;;;;;7.75;3.03;;;21.60;89.60;;;;;;5110886;28;20036;-65
2022/06/20 13:24:10;;;;;;;11.48;3.22;;;21.80;89.30;;;;;;5110489;28;20020;-66
2022/06/20 13:27:02;;;;;;;6.57;2.47;;;21.50;89.30;;;;;;5109683;28;20093;-65
2022/06/20 13:29:38;;;;;;;4.85;2.78;;;21.50;86.80;;;;;;5090092;28;20471;-65
2022/06/20 13:32:15;;;;;;;6.22;2.80;;;21.60;85.20;;;;;;5107052;28;20094;-66
2022/06/20 13:35:21;;;;;;;5.45;2.58;;;21.50;86.80;;;;;;5107739;28;20032;-65
2022/06/20 13:40:52;;;;;;;9.65;3.63;;;21.60;85.60;;;;;;5084531;28;20899;-66
2022/06/20 13:43:36;;;;;;;6.65;2.75;;;21.70;86.70;;;;;;5081029;28;20124;-66
2022/06/20 13:46:27;;;;;;;6.55;2.85;;;21.50;84.80;;;;;;5073561;28;20421;-66
2022/06/20 13:49:12;;;;;;;6.22;2.75;;;21.50;88.20;;;;;;5074277;28;20024;-66
2022/06/20 13:51:51;;;;;;;9.18;2.97;;;21.40;88.80;;;;;;5065349;28;20058;-66
2022/06/20 13:54:30;;;;;;;7.53;2.88;;;21.40;88.70;;;;;;5052387;28;20687;-66
2022/06/20 13:59:50;;;;;;;7.40;2.50;;;21.50;86.80;;;;;;5100333;27;20368;-66
2022/06/20 14:02:39;;;;;;;6.35;2.22;;;21.60;86.20;;;;;;5089391;28;20028;-66
2022/06/20 14:05:17;;;;;;;7.50;2.80;;;21.70;84.00;;;;;;5078102;28;20078;-66
2022/06/20 14:07:46;;;;;;;6.03;2.50;;;22.10;85.30;;;;;;5090130;28;20081;-66
2022/06/20 14:10:25;;;;;;;9.13;2.50;;;22.20;81.90;;;;;;5089283;28;20029;-66
2022/06/20 14:12:55;;;;;;;6.72;2.83;;;22.30;81.60;;;;;;5090378;28;20028;-66
2022/06/20 14:15:26;;;;;;;6.32;2.60;;;22.50;81.30;;;;;;5087586;28;20036;-66
2022/06/20 14:17:57;;;;;;;9.23;2.20;;;22.40;80.00;;;;;;5089789;28;20036;-66
2022/06/20 14:20:30;;;;;;;5.47;2.20;;;22.10;79.80;;;;;;5089430;28;20412;-66
2022/06/20 14:22:58;;;;;;;5.85;2.33;;;22.20;80.50;;;;;;5090501;28;20035;-66
2022/06/20 14:25:42;;;;;;;3.47;2.10;;;22.30;80.00;;;;;;5088420;28;20017;-66
2022/06/20 14:28:48;;;;;;;6.18;2.00;;;22.40;79.40;;;;;;5087602;28;20119;-66